Time;durP1;ratioP1;P1;durP2;ratioP2;P2;SDS_P1;SDS_P2;PMS_P1;PMS_P2;Temp;Humidity;BMP_temperature;BMP_pressure;BME280_temperature;BME280_humidity;BME280_pressure;Samples;Min_cycle;Max_cycle;Signal;HPM_P1;HPM_P2
2022/11/21 00:01:57;;;;;;;;;;;7.70;99.90;;;;;;5096341;28;19915;-77
2022/11/21 00:04:22;;;;;;;;;;;7.80;99.90;;;;;;5077410;28;19954;-77
2022/11/21 00:06:49;;;;;;;;;;;7.80;99.90;;;;;;5096150;28;19991;-78
2022/11/21 00:09:15;;;;;;;;;;;7.90;99.90;;;;;;5096447;28;19912;-77
2022/11/21 00:11:40;;;;;;;;;;;7.80;99.90;;;;;;5077425;28;20325;-78
2022/11/21 00:14:06;;;;;;;;;;;7.90;99.90;;;;;;5095903;28;19961;-77
2022/11/21 00:16:31;;;;;;;;;;;7.90;99.90;;;;;;5096070;28;19912;-77
2022/11/21 00:18:57;;;;;;;;;;;7.90;99.90;;;;;;5095879;28;19909;-77
2022/11/21 00:21:22;;;;;;;;;;;8.00;99.90;;;;;;5095338;28;20381;-76
2022/11/21 00:23:48;;;;;;;;;;;8.00;99.90;;;;;;5096134;28;19908;-77
2022/11/21 00:26:14;;;;;;;;;;;8.00;99.90;;;;;;5096105;28;20364;-78
2022/11/21 00:28:40;;;;;;;;;;;8.10;99.90;;;;;;5095590;28;20035;-76
2022/11/21 00:31:05;;;;;;;;;;;8.20;99.90;;;;;;5096265;28;20341;-75
2022/11/21 00:33:31;;;;;;;;;;;8.20;99.90;;;;;;5095459;28;19916;-76
2022/11/21 00:35:56;;;;;;;;;;;8.30;99.90;;;;;;5096201;28;19934;-76
2022/11/21 00:38:23;;;;;;;;;;;8.40;99.90;;;;;;5095698;28;20010;-75
2022/11/21 00:40:48;;;;;;;;;;;8.40;99.90;;;;;;5095584;28;19969;-75
2022/11/21 00:43:14;;;;;;;;;;;8.40;99.90;;;;;;5095573;28;20385;-76
2022/11/21 00:45:39;;;;;;;;;;;8.40;99.90;;;;;;5095139;28;19908;-75
2022/11/21 00:48:05;;;;;;;;;;;8.40;99.90;;;;;;5095673;28;19908;-75
2022/11/21 00:50:31;;;;;;;;;;;8.40;99.90;;;;;;5094876;28;20384;-75
2022/11/21 00:52:57;;;;;;;;;;;8.40;99.90;;;;;;5077378;28;20041;-75
2022/11/21 00:55:23;;;;;;;;;;;8.40;99.90;;;;;;5094955;28;19921;-75
2022/11/21 00:57:48;;;;;;;;;;;8.50;99.90;;;;;;5077193;28;19908;-75
2022/11/21 01:00:14;;;;;;;;;;;8.50;99.90;;;;;;5095138;28;19908;-75
2022/11/21 01:02:40;;;;;;;;;;;8.50;99.90;;;;;;5094940;28;20278;-75
2022/11/21 01:05:05;;;;;;;;;;;8.50;99.90;;;;;;5095097;28;19962;-75
2022/11/21 01:07:31;;;;;;;;;;;8.50;99.90;;;;;;5094870;28;19915;-75
2022/11/21 01:09:57;;;;;;;;;;;8.60;99.90;;;;;;5095259;28;19908;-75
2022/11/21 01:12:23;;;;;;;;;;;8.70;99.90;;;;;;5095500;28;19908;-75
2022/11/21 01:14:49;;;;;;;;;;;8.70;99.90;;;;;;5094921;28;19908;-75
2022/11/21 01:17:14;;;;;;;;;;;8.80;99.90;;;;;;5095158;28;19916;-76
2022/11/21 01:19:40;;;;;;;;;;;8.80;99.90;;;;;;5094713;28;20004;-75
2022/11/21 01:22:06;;;;;;;;;;;9.00;99.90;;;;;;5095064;28;19932;-75
2022/11/21 01:24:31;;;;;;;;;;;9.00;99.90;;;;;;5094361;28;20377;-75
2022/11/21 01:26:57;;;;;;;;;;;9.00;99.90;;;;;;5094473;28;19985;-75
2022/11/21 01:29:22;;;;;;;;;;;9.00;99.90;;;;;;5094835;28;20405;-75
2022/11/21 01:31:48;;;;;;;;;;;9.00;99.90;;;;;;5094336;28;19908;-75
2022/11/21 01:34:14;;;;;;;;;;;9.00;99.90;;;;;;5094596;28;19916;-75
2022/11/21 01:36:40;;;;;;;;;;;8.90;99.90;;;;;;5094029;28;19908;-75
2022/11/21 01:39:06;;;;;;;;;;;8.90;99.90;;;;;;5095090;28;19908;-75
2022/11/21 01:41:36;;;;;;;;;;;8.80;99.90;;;;;;5093953;28;20249;-75
2022/11/21 01:44:08;;;;;;;;;;;8.80;99.90;;;;;;5094815;28;20277;-75
2022/11/21 01:46:34;;;;;;;;;;;8.80;99.90;;;;;;5094515;28;19970;-75
2022/11/21 01:49:08;;;;;;;;;;;8.80;99.90;;;;;;5094680;28;20365;-76
2022/11/21 01:51:39;;;;;;;;;;;8.80;99.90;;;;;;5093842;28;19959;-75
2022/11/21 01:54:08;;;;;;;;;;;8.80;99.90;;;;;;5093880;28;19924;-75
2022/11/21 01:56:42;;;;;;;;;;;8.70;99.90;;;;;;5093970;28;19961;-75
2022/11/21 01:59:09;;;;;;;;;;;8.70;99.90;;;;;;5094437;28;19946;-75
2022/11/21 02:01:36;;;;;;;;;;;8.60;99.90;;;;;;5094026;28;19955;-74
2022/11/21 02:04:02;;;;;;;;;;;8.60;99.90;;;;;;5093929;28;19908;-75
2022/11/21 02:06:28;;;;;;;;;;;8.70;99.90;;;;;;5093736;28;20301;-74
2022/11/21 02:08:54;;;;;;;;;;;8.70;99.90;;;;;;5094081;28;19908;-75
2022/11/21 02:11:38;;;;;;;;;;;8.70;99.90;;;;;;5109094;28;19915;-75
2022/11/21 02:14:04;;;;;;;;;;;8.70;99.90;;;;;;5093901;28;20273;-75
2022/11/21 02:16:30;;;;;;;;;;;8.80;99.90;;;;;;5093766;28;19912;-75
2022/11/21 02:18:55;;;;;;;;;;;8.90;99.90;;;;;;5093813;28;19981;-75
2022/11/21 02:21:27;;;;;;;;;;;9.00;99.90;;;;;;5093585;28;19908;-75
2022/11/21 02:23:56;;;;;;;;;;;9.00;99.90;;;;;;5093173;28;19931;-75
2022/11/21 02:26:21;;;;;;;;;;;9.00;99.90;;;;;;5093971;28;19961;-75
2022/11/21 02:28:47;;;;;;;;;;;9.10;99.90;;;;;;5093472;28;19915;-75
2022/11/21 02:31:12;;;;;;;;;;;9.10;99.90;;;;;;5093483;28;19915;-74
2022/11/21 02:33:38;;;;;;;;;;;9.10;99.90;;;;;;5093140;28;20007;-74
2022/11/21 02:36:04;;;;;;;;;;;9.10;99.90;;;;;;5093770;28;19965;-75
2022/11/21 02:38:31;;;;;;;;;;;9.10;99.90;;;;;;5093503;28;19953;-73
2022/11/21 02:41:00;;;;;;;;;;;9.00;99.90;;;;;;5075176;28;19914;-73
2022/11/21 02:43:32;;;;;;;;;;;9.00;99.90;;;;;;5093554;28;19951;-73
2022/11/21 02:45:58;;;;;;;;;;;9.00;99.90;;;;;;5093591;28;20010;-75
2022/11/21 02:48:23;;;;;;;;;;;8.90;99.90;;;;;;5093529;28;20353;-76
2022/11/21 02:50:49;;;;;;;;;;;8.90;99.90;;;;;;5093100;28;19939;-74
2022/11/21 02:53:15;;;;;;;;;;;8.90;99.90;;;;;;5075233;28;19916;-73
2022/11/21 02:55:41;;;;;;;;;;;8.90;99.90;;;;;;5092836;28;19959;-73
2022/11/21 02:58:07;;;;;;;;;;;8.90;99.90;;;;;;5093448;28;19946;-74
2022/11/21 03:00:34;;;;;;;;;;;8.80;99.90;;;;;;5092891;28;19948;-73
2022/11/21 03:03:00;;;;;;;;;;;8.80;99.90;;;;;;5092922;28;19915;-74
2022/11/21 03:05:27;;;;;;;;;;;8.70;99.90;;;;;;5093493;28;19912;-74
2022/11/21 03:07:52;;;;;;;;;;;8.70;99.90;;;;;;5074662;28;20494;-74
2022/11/21 03:10:18;;;;;;;;;;;8.70;99.90;;;;;;5093487;28;19908;-74
2022/11/21 03:12:44;;;;;;;;;;;8.70;99.90;;;;;;5092735;28;20311;-74
2022/11/21 03:15:11;;;;;;;;;;;8.70;99.90;;;;;;5093189;28;19961;-74
2022/11/21 03:17:37;;;;;;;;;;;8.70;99.90;;;;;;5092579;28;19908;-74
2022/11/21 03:20:03;;;;;;;;;;;8.60;99.90;;;;;;5108864;28;19908;-74
2022/11/21 03:22:28;;;;;;;;;;;8.70;99.90;;;;;;5077409;28;19908;-74
2022/11/21 03:24:54;;;;;;;;;;;8.70;99.90;;;;;;5078738;28;19912;-74
2022/11/21 03:27:20;;;;;;;;;;;8.70;99.90;;;;;;5097151;28;19908;-74
2022/11/21 03:29:45;;;;;;;;;;;8.70;99.90;;;;;;5096879;28;20277;-73
2022/11/21 03:32:11;;;;;;;;;;;8.70;99.90;;;;;;5096995;28;19989;-74
2022/11/21 03:34:36;;;;;;;;;;;8.70;99.90;;;;;;5096793;28;19920;-73
2022/11/21 03:37:02;;;;;;;;;;;8.70;99.90;;;;;;5097440;28;19991;-73
2022/11/21 03:39:28;;;;;;;;;;;8.80;99.90;;;;;;5096962;28;19908;-73
2022/11/21 03:41:53;;;;;;;;;;;8.80;99.90;;;;;;5096317;28;19911;-73
2022/11/21 03:44:19;;;;;;;;;;;8.80;99.90;;;;;;5097333;28;19915;-74
2022/11/21 03:46:45;;;;;;;;;;;8.90;99.90;;;;;;5096463;28;19912;-73
2022/11/21 03:49:11;;;;;;;;;;;8.90;99.90;;;;;;5096926;28;19951;-73
2022/11/21 03:51:37;;;;;;;;;;;8.90;99.90;;;;;;5096477;28;19912;-73
2022/11/21 03:54:03;;;;;;;;;;;9.00;99.90;;;;;;5096489;28;19920;-74
2022/11/21 03:56:29;;;;;;;;;;;9.00;99.90;;;;;;5097070;28;19915;-74
2022/11/21 03:58:54;;;;;;;;;;;9.10;99.90;;;;;;5096319;28;20104;-74
2022/11/21 04:01:20;;;;;;;;;;;9.10;99.90;;;;;;5096279;28;19947;-74
2022/11/21 04:03:46;;;;;;;;;;;9.10;99.90;;;;;;5095767;28;19908;-74
2022/11/21 04:06:12;;;;;;;;;;;9.10;99.90;;;;;;5096604;28;19975;-74
2022/11/21 04:08:38;;;;;;;;;;;9.20;99.90;;;;;;5095657;28;19908;-74
2022/11/21 04:11:04;;;;;;;;;;;9.30;99.90;;;;;;5096581;28;20292;-74
2022/11/21 04:13:30;;;;;;;;;;;9.50;99.90;;;;;;5096350;28;19912;-74
2022/11/21 04:15:56;;;;;;;;;;;9.60;99.90;;;;;;5095957;28;19908;-74
2022/11/21 04:18:21;;;;;;;;;;;9.70;99.90;;;;;;5096331;28;19908;-74
2022/11/21 04:20:47;;;;;;;;;;;9.80;99.90;;;;;;5095960;28;19908;-74
2022/11/21 04:23:12;;;;;;;;;;;9.90;99.90;;;;;;5096528;28;19908;-73
2022/11/21 04:25:39;;;;;;;;;;;9.90;99.90;;;;;;5077710;28;20361;-74
2022/11/21 04:28:04;;;;;;;;;;;10.00;99.90;;;;;;5095781;28;19908;-73
2022/11/21 04:30:31;;;;;;;;;;;10.00;99.90;;;;;;5096397;28;19908;-73
2022/11/21 04:32:57;;;;;;;;;;;10.00;99.90;;;;;;5094916;28;20055;-74
2022/11/21 04:35:23;;;;;;;;;;;9.90;99.90;;;;;;5095545;28;20353;-74
2022/11/21 04:37:49;;;;;;;;;;;9.90;99.90;;;;;;5095539;28;20276;-74
2022/11/21 04:40:15;;;;;;;;;;;9.90;99.90;;;;;;5095874;28;19923;-73
2022/11/21 04:42:41;;;;;;;;;;;9.90;99.90;;;;;;5077145;28;19915;-74
2022/11/21 04:45:07;;;;;;;;;;;9.90;99.90;;;;;;5095509;28;20010;-73
2022/11/21 04:47:39;;;;;;;;;;;9.90;99.90;;;;;;5095827;28;19915;-74
2022/11/21 04:50:05;;;;;;;;;;;9.90;99.90;;;;;;5095412;28;19912;-74
2022/11/21 04:52:31;;;;;;;;;;;10.00;99.90;;;;;;5095698;28;19908;-74
2022/11/21 04:54:57;;;;;;;;;;;9.90;99.90;;;;;;5110719;28;19927;-74
2022/11/21 04:57:23;;;;;;;;;;;9.90;99.90;;;;;;5077595;28;20003;-74
2022/11/21 04:59:48;;;;;;;;;;;10.00;99.90;;;;;;5077341;28;19908;-75
2022/11/21 05:02:14;;;;;;;;;;;9.90;99.90;;;;;;5095450;28;19912;-75
2022/11/21 05:04:39;;;;;;;;;;;9.90;99.90;;;;;;5094756;28;19962;-75
2022/11/21 05:07:05;;;;;;;;;;;9.90;99.90;;;;;;5094872;28;19916;-75
2022/11/21 05:09:31;;;;;;;;;;;9.80;99.90;;;;;;5095401;28;19912;-76
2022/11/21 05:14:40;;;;;;;;;;;9.80;99.90;;;;;;5094769;28;20414;-75
2022/11/21 05:17:06;;;;;;;;;;;9.80;99.90;;;;;;5094913;28;19908;-76
2022/11/21 05:19:31;;;;;;;;;;;9.70;99.90;;;;;;5094773;28;19914;-75
2022/11/21 05:21:57;;;;;;;;;;;9.70;99.90;;;;;;5094304;28;20033;-75
2022/11/21 05:24:23;;;;;;;;;;;9.60;99.90;;;;;;5094678;28;19908;-74
2022/11/21 05:26:48;;;;;;;;;;;9.60;99.90;;;;;;5094666;28;19915;-74
2022/11/21 05:29:14;;;;;;;;;;;9.60;99.90;;;;;;5094994;28;19912;-74
2022/11/21 05:31:39;;;;;;;;;;;9.50;99.90;;;;;;5094867;28;19916;-74
2022/11/21 05:34:05;;;;;;;;;;;9.50;99.90;;;;;;5094158;28;19946;-76
2022/11/21 05:36:30;;;;;;;;;;;9.40;99.90;;;;;;5094734;28;19983;-76
2022/11/21 05:38:56;;;;;;;;;;;9.40;99.90;;;;;;5094065;28;19961;-76
2022/11/21 05:41:22;;;;;;;;;;;9.40;99.90;;;;;;5094743;28;19933;-77
2022/11/21 05:43:48;;;;;;;;;;;9.40;99.90;;;;;;5094123;28;19908;-78
2022/11/21 05:46:18;;;;;;;;;;;9.40;99.90;;;;;;5093468;28;19908;-76
2022/11/21 05:48:44;;;;;;;;;;;9.30;99.90;;;;;;5093913;28;20431;-77
2022/11/21 05:51:10;;;;;;;;;;;9.40;99.90;;;;;;5094275;28;19912;-77
2022/11/21 05:53:35;;;;;;;;;;;9.40;99.90;;;;;;5094225;28;19970;-77
2022/11/21 05:56:05;;;;;;;;;;;9.40;99.90;;;;;;5094105;28;19970;-77
2022/11/21 05:58:31;;;;;;;;;;;9.40;99.90;;;;;;5094502;28;19908;-77
2022/11/21 06:00:57;;;;;;;;;;;9.40;99.90;;;;;;5093898;28;20372;-77
2022/11/21 06:03:26;;;;;;;;;;;9.40;99.90;;;;;;5094228;28;19912;-74
2022/11/21 06:05:58;;;;;;;;;;;9.40;99.90;;;;;;5093794;28;20257;-75
2022/11/21 06:08:24;;;;;;;;;;;9.40;99.90;;;;;;5094481;28;19916;-75
2022/11/21 06:10:50;;;;;;;;;;;9.30;99.90;;;;;;5075430;28;19909;-75
2022/11/21 06:13:21;;;;;;;;;;;9.40;99.90;;;;;;5094012;28;19912;-75
2022/11/21 06:16:07;;;;;;;;;;;9.30;99.90;;;;;;5093675;28;19919;-76
2022/11/21 06:18:43;;;;;;;;;;;9.30;99.90;;;;;;5093391;28;19908;-76
2022/11/21 06:21:11;;;;;;;;;;;9.40;99.90;;;;;;5093497;28;19908;-75
2022/11/21 06:23:37;;;;;;;;;;;9.40;99.90;;;;;;5093925;28;19915;-74
2022/11/21 06:26:05;;;;;;;;;;;9.40;99.90;;;;;;5093378;28;19990;-75
2022/11/21 06:28:32;;;;;;;;;;;9.40;99.90;;;;;;5093861;28;19961;-74
2022/11/21 06:31:08;;;;;;;;;;;9.40;99.90;;;;;;5093263;28;19908;-75
2022/11/21 06:33:34;;;;;;;;;;;9.40;99.90;;;;;;5093526;28;20015;-74
2022/11/21 06:36:01;;;;;;;;;;;9.40;99.90;;;;;;5108891;28;19955;-74
2022/11/21 06:38:26;;;;;;;;;;;9.30;99.90;;;;;;5093300;28;19947;-74
2022/11/21 06:40:52;;;;;;;;;;;9.40;99.90;;;;;;5092997;28;19930;-74
2022/11/21 06:43:17;;;;;;;;;;;9.40;99.90;;;;;;5093655;28;19912;-74
2022/11/21 06:45:43;;;;;;;;;;;9.30;99.90;;;;;;5093269;28;19950;-74
2022/11/21 06:48:08;;;;;;;;;;;9.30;99.90;;;;;;5093027;28;20315;-74
2022/11/21 06:50:34;;;;;;;;;;;9.30;99.90;;;;;;5075230;28;19991;-74
2022/11/21 06:53:00;;;;;;;;;;;9.30;99.90;;;;;;5092914;28;19912;-76
2022/11/21 06:55:27;;;;;;;;;;;9.20;99.90;;;;;;5091399;28;19924;-76
2022/11/21 06:57:55;;;;;;;;;;;9.20;99.90;;;;;;5092516;28;19908;-76
2022/11/21 07:00:22;;;;;;;;;;;9.20;99.90;;;;;;5093717;28;19970;-76
2022/11/21 07:02:47;;;;;;;;;;;9.20;99.90;;;;;;5108476;28;19915;-81
2022/11/21 07:05:13;;;;;;;;;;;9.20;99.90;;;;;;5074829;28;19908;-79
2022/11/21 07:07:38;;;;;;;;;;;9.20;99.90;;;;;;5074724;28;19909;-77
2022/11/21 07:10:04;;;;;;;;;;;9.20;99.90;;;;;;5092556;28;19908;-75
2022/11/21 07:15:14;;;;;;;;;;;9.20;99.90;;;;;;5093236;28;20366;-78
2022/11/21 07:17:39;;;;;;;;;;;9.20;99.90;;;;;;5092845;28;19908;-77
2022/11/21 07:20:05;;;;;;;;;;;9.20;99.90;;;;;;5092334;28;19948;-81
2022/11/21 07:22:30;;;;;;;;;;;9.10;99.90;;;;;;5092719;28;19908;-77
2022/11/21 07:24:56;;;;;;;;;;;9.10;99.90;;;;;;5092716;28;19916;-75
2022/11/21 07:27:22;;;;;;;;;;;9.10;99.90;;;;;;5092819;28;20272;-77
2022/11/21 07:29:47;;;;;;;;;;;9.10;99.90;;;;;;5092736;28;19923;-78
2022/11/21 07:32:13;;;;;;;;;;;9.20;99.90;;;;;;5092916;28;19987;-78
2022/11/21 07:34:39;;;;;;;;;;;9.10;99.90;;;;;;5092711;28;19948;-76
2022/11/21 07:37:05;;;;;;;;;;;9.20;99.90;;;;;;5092422;28;19970;-75
2022/11/21 07:39:30;;;;;;;;;;;9.10;99.90;;;;;;5092948;28;19915;-75
2022/11/21 07:41:56;;;;;;;;;;;9.10;99.90;;;;;;5092898;28;19908;-75
2022/11/21 07:44:21;;;;;;;;;;;9.10;99.90;;;;;;5093010;28;19947;-75
2022/11/21 07:46:47;;;;;;;;;;;9.10;99.90;;;;;;5092759;28;19915;-76
2022/11/21 07:49:12;;;;;;;;;;;9.10;99.90;;;;;;5092307;28;20303;-77
2022/11/21 07:51:38;;;;;;;;;;;9.10;99.90;;;;;;5074681;28;19908;-79
2022/11/21 07:54:04;;;;;;;;;;;9.10;99.90;;;;;;5092243;28;20399;-78
2022/11/21 07:56:29;;;;;;;;;;;9.10;99.90;;;;;;5092581;28;20281;-77
2022/11/21 07:58:55;;;;;;;;;;;9.10;99.90;;;;;;5092119;28;19911;-76
2022/11/21 08:01:20;;;;;;;;;;;9.10;99.90;;;;;;5092555;28;20276;-76
2022/11/21 08:03:46;;;;;;;;;;;9.10;99.90;;;;;;5092793;28;19977;-76
2022/11/21 08:06:12;;;;;;;;;;;9.10;99.90;;;;;;5091649;28;19911;-75
2022/11/21 08:08:37;;;;;;;;;;;9.10;99.90;;;;;;5093305;28;20253;-75
2022/11/21 08:11:04;;;;;;;;;;;9.10;99.90;;;;;;5095568;28;19912;-76
2022/11/21 08:13:30;;;;;;;;;;;9.10;99.90;;;;;;5096087;28;20340;-77
2022/11/21 08:15:55;;;;;;;;;;;9.10;99.90;;;;;;5096122;28;19958;-79
2022/11/21 08:18:21;;;;;;;;;;;9.10;99.90;;;;;;5096395;28;19921;-78
2022/11/21 08:20:46;;;;;;;;;;;9.20;99.90;;;;;;5095732;28;19916;-78
2022/11/21 08:23:12;;;;;;;;;;;9.20;99.90;;;;;;5077503;28;19904;-79
2022/11/21 08:25:38;;;;;;;;;;;9.20;99.90;;;;;;5078066;28;19912;-79
2022/11/21 08:28:04;;;;;;;;;;;9.20;99.90;;;;;;5095774;28;19915;-76
2022/11/21 08:30:30;;;;;;;;;;;9.20;99.90;;;;;;5095875;28;19908;-78
2022/11/21 08:32:59;;;;;;;;;;;9.20;99.90;;;;;;5095517;28;19916;-76
2022/11/21 08:35:24;;;;;;;;;;;9.20;99.90;;;;;;5077909;28;20254;-76
2022/11/21 08:38:00;;;;;;;;;;;9.20;99.90;;;;;;5095878;28;19929;-76
2022/11/21 08:40:26;;;;;;;;;;;9.20;99.90;;;;;;5095786;28;19946;-76
2022/11/21 08:42:55;;;;;;;;;;;9.30;99.90;;;;;;5095734;28;19908;-77
2022/11/21 08:45:21;;;;;;;;;;;9.30;99.90;;;;;;5095794;28;19912;-78
2022/11/21 08:47:46;;;;;;;;;;;9.30;99.90;;;;;;5095780;28;19914;-78
2022/11/21 08:50:12;;;;;;;;;;;9.30;99.90;;;;;;5095304;28;19909;-76
2022/11/21 08:52:38;;;;;;;;;;;9.30;99.90;;;;;;5095894;28;20265;-76
2022/11/21 08:55:03;;;;;;;;;;;9.30;99.90;;;;;;5092665;28;19995;-76
2022/11/21 08:57:30;;;;;;;;;;;9.30;99.90;;;;;;5076894;28;19912;-77
2022/11/21 08:59:55;;;;;;;;;;;9.30;99.90;;;;;;5094958;28;20285;-76
2022/11/21 09:02:21;;;;;;;;;;;9.40;99.90;;;;;;5076870;28;19909;-76
2022/11/21 09:04:46;;;;;;;;;;;9.30;99.90;;;;;;5095086;28;19947;-77
2022/11/21 09:07:12;;;;;;;;;;;9.30;99.90;;;;;;5094261;28;19908;-77
2022/11/21 09:09:38;;;;;;;;;;;9.30;99.90;;;;;;5094888;28;19908;-78
2022/11/21 09:12:03;;;;;;;;;;;9.30;99.90;;;;;;5094722;28;19908;-77
2022/11/21 09:19:57;;;;;;;;;;;9.30;99.90;;;;;;5094473;28;20026;-78
2022/11/21 09:22:24;;;;;;;;;;;9.40;99.90;;;;;;5094818;28;19949;-77
2022/11/21 09:24:50;;;;;;;;;;;9.40;99.90;;;;;;5094862;28;19935;-77
2022/11/21 09:27:16;;;;;;;;;;;9.30;99.90;;;;;;5093932;28;19904;-77
2022/11/21 09:29:41;;;;;;;;;;;9.30;99.90;;;;;;5094110;28;20038;-76
2022/11/21 09:32:07;;;;;;;;;;;9.30;99.90;;;;;;5093959;28;20357;-76
2022/11/21 09:34:32;;;;;;;;;;;9.30;99.90;;;;;;5094682;28;19962;-76
2022/11/21 09:36:58;;;;;;;;;;;9.30;99.90;;;;;;5093833;28;19909;-75
2022/11/21 09:39:24;;;;;;;;;;;9.30;99.90;;;;;;5093487;28;20383;-76
2022/11/21 09:41:55;;;;;;;;;;;9.40;99.90;;;;;;5093767;28;19909;-77
2022/11/21 09:44:21;;;;;;;;;;;9.30;99.90;;;;;;5093818;28;19909;-78
2022/11/21 09:46:48;;;;;;;;;;;9.40;99.90;;;;;;5093546;28;20011;-80
2022/11/21 09:49:14;;;;;;;;;;;9.30;99.90;;;;;;5094320;28;19908;-83
2022/11/21 09:51:41;;;;;;;;;;;9.30;99.90;;;;;;5076832;28;19915;-82
2022/11/21 09:54:14;;;;;;;;;;;9.20;99.90;;;;;;5094006;28;19920;-80
2022/11/21 09:56:41;;;;;;;;;;;9.10;99.90;;;;;;5093821;28;19961;-80
2022/11/21 09:59:10;;;;;;;;;;;9.00;99.90;;;;;;5075484;28;19958;-79
2022/11/21 10:01:35;;;;;;;;;;;8.90;99.90;;;;;;5093567;28;19918;-79
2022/11/21 10:04:02;;;;;;;;;;;8.70;99.90;;;;;;5109177;28;20331;-80
2022/11/21 10:06:28;;;;;;;;;;;8.50;99.90;;;;;;5075225;28;19955;-78
2022/11/21 10:08:57;;;;;;;;;;;8.30;99.90;;;;;;5092127;28;19908;-77
2022/11/21 10:12:35;;;;;;;;;;;8.10;99.90;;;;;;5092607;28;19914;-76
2022/11/21 10:14:29;;;;;;;;;;;7.90;99.90;;;;;;5091994;28;19962;-75
2022/11/21 10:17:04;;;;;;;;;;;7.70;99.90;;;;;;5092896;28;19962;-75
2022/11/21 10:19:35;;;;;;;;;;;7.50;99.90;;;;;;5074535;28;19916;-75
2022/11/21 10:22:01;;;;;;;;;;;7.40;99.90;;;;;;5073873;28;19954;-75
2022/11/21 10:24:35;;;;;;;;;;;7.40;99.90;;;;;;5093028;28;19912;-74
2022/11/21 10:27:03;;;;;;;;;;;7.40;99.90;;;;;;5093043;28;19908;-75
2022/11/21 10:29:35;;;;;;;;;;;7.30;99.90;;;;;;5093455;28;19916;-75
2022/11/21 10:32:02;;;;;;;;;;;7.30;99.90;;;;;;5092391;28;19915;-75
2022/11/21 10:34:35;;;;;;;;;;;7.30;99.90;;;;;;5093483;28;19913;-75
2022/11/21 10:37:06;;;;;;;;;;;7.20;99.90;;;;;;5093310;28;19912;-75
2022/11/21 10:39:37;;;;;;;;;;;7.30;99.90;;;;;;5093359;28;19999;-76
2022/11/21 10:42:22;;;;;;;;;;;7.20;99.90;;;;;;5092968;28;19923;-75
2022/11/21 10:47:33;;;;;;;;;;;7.20;99.90;;;;;;5093323;28;19916;-75
2022/11/21 10:50:07;;;;;;;;;;;7.30;99.90;;;;;;5092907;28;19908;-75
2022/11/21 10:52:35;;;;;;;;;;;7.30;99.90;;;;;;5093235;28;19915;-75
2022/11/21 10:55:03;;;;;;;;;;;7.40;99.90;;;;;;5092660;28;20038;-74
2022/11/21 10:57:40;;;;;;;;;;;7.30;99.90;;;;;;5093195;28;19908;-74
2022/11/21 11:00:11;;;;;;;;;;;7.40;99.90;;;;;;5092694;28;19912;-74
2022/11/21 11:02:38;;;;;;;;;;;7.30;99.90;;;;;;5093073;28;19915;-74
2022/11/21 11:05:13;;;;;;;;;;;7.40;99.90;;;;;;5092221;28;19915;-74
2022/11/21 11:07:38;;;;;;;;;;;7.40;99.90;;;;;;5093835;28;19908;-74
2022/11/21 11:10:24;;;;;;;;;;;7.40;99.90;;;;;;5093616;28;20038;-74
2022/11/21 11:15:35;;;;;;;;;;;7.40;99.90;;;;;;5093144;28;19915;-74
2022/11/21 11:18:02;;;;;;;;;;;7.40;99.90;;;;;;5092618;28;19908;-74
2022/11/21 11:20:28;;;;;;;;;;;7.50;99.90;;;;;;5092755;28;20009;-74
2022/11/21 11:22:53;;;;;;;;;;;7.40;99.90;;;;;;5092413;28;19978;-74
2022/11/21 11:25:19;;;;;;;;;;;7.50;99.90;;;;;;5092085;28;19994;-74
2022/11/21 11:27:44;;;;;;;;;;;7.50;99.90;;;;;;5092649;28;19999;-74
2022/11/21 11:30:13;;;;;;;;;;;7.50;99.90;;;;;;5107929;28;20257;-74
2022/11/21 11:32:40;;;;;;;;;;;7.50;99.90;;;;;;5092520;28;19915;-74
2022/11/21 11:35:11;;;;;;;;;;;7.50;99.90;;;;;;5092215;28;19998;-73
2022/11/21 11:37:38;;;;;;;;;;;7.50;99.90;;;;;;5092309;28;19909;-74
2022/11/21 11:40:04;;;;;;;;;;;7.50;99.90;;;;;;5074010;28;19970;-74
2022/11/21 11:48:19;;;;;;;;;;;7.50;99.90;;;;;;5096310;28;20459;-74
2022/11/21 11:50:50;;;;;;;;;;;7.50;99.90;;;;;;5096143;28;19912;-74
2022/11/21 11:53:18;;;;;;;;;;;7.50;99.90;;;;;;5095608;28;20455;-74
2022/11/21 11:55:55;;;;;;;;;;;7.60;99.90;;;;;;5096135;28;20053;-74
2022/11/21 11:58:31;;;;;;;;;;;7.60;99.90;;;;;;5095674;28;19935;-74
2022/11/21 12:00:59;;;;;;;;;;;7.70;99.90;;;;;;5077894;28;20314;-74
2022/11/21 12:03:45;;;;;;;;;;;7.70;99.90;;;;;;5111929;28;19934;-74
2022/11/21 12:06:22;;;;;;;;;;;7.70;99.90;;;;;;5095327;28;20005;-75
2022/11/21 12:08:51;;;;;;;;;;;7.70;99.90;;;;;;5096324;28;19908;-75
2022/11/21 12:17:54;;;;;;;;;;;7.80;99.90;;;;;;5096324;28;19957;-74
2022/11/21 12:20:21;;;;;;;;;;;7.80;99.90;;;;;;5093346;28;19908;-74
2022/11/21 12:22:48;;;;;;;;;;;7.90;99.90;;;;;;5095967;28;19920;-74
2022/11/21 12:25:14;;;;;;;;;;;7.90;99.90;;;;;;5095607;28;19965;-74
2022/11/21 12:27:41;;;;;;;;;;;7.90;99.90;;;;;;5095760;28;19912;-74
2022/11/21 12:30:13;;;;;;;;;;;7.90;99.90;;;;;;5095303;28;20409;-75
2022/11/21 12:32:56;;;;;;;;;;;7.90;99.90;;;;;;5095869;28;19908;-74
2022/11/21 12:35:29;;;;;;;;;;;7.90;99.90;;;;;;5095448;28;19923;-75
2022/11/21 12:38:27;;;;;;;;;;;7.90;99.90;;;;;;5094961;28;19912;-75
2022/11/21 12:40:52;;;;;;;;;;;7.80;99.90;;;;;;5070332;28;19912;-74
2022/11/21 12:43:47;;;;;;;;;;;7.80;99.90;;;;;;5077127;28;19909;-73
2022/11/21 12:46:35;;;;;;;;;;;7.80;99.90;;;;;;5085688;28;19908;-74
2022/11/21 12:55:18;;;;;;;;;;;8.00;99.90;;;;;;5062917;28;19927;-74
2022/11/21 12:58:04;;;;;;;;;;;8.00;99.90;;;;;;5094633;28;20277;-74
2022/11/21 13:00:35;;;;;;;;;;;8.00;99.90;;;;;;5095462;28;19912;-74
2022/11/21 13:03:13;;;;;;;;;;;8.00;99.90;;;;;;5095539;28;19908;-73
2022/11/21 13:05:40;;;;;;;;;;;8.10;99.90;;;;;;5094931;28;19909;-74
2022/11/21 13:08:09;;;;;;;;;;;8.10;99.90;;;;;;5094434;28;19934;-75
2022/11/21 13:10:35;;;;;;;;;;;8.20;99.90;;;;;;5095210;28;19908;-74
2022/11/21 13:13:06;;;;;;;;;;;8.20;99.90;;;;;;5095304;28;19943;-74
2022/11/21 13:15:38;;;;;;;;;;;8.30;99.90;;;;;;5094619;28;19919;-74
2022/11/21 13:18:03;;;;;;;;;;;8.30;99.90;;;;;;5094733;28;19961;-74
2022/11/21 13:20:38;;;;;;;;;;;8.30;99.90;;;;;;5094329;28;19908;-74
2022/11/21 13:23:24;;;;;;;;;;;8.30;99.90;;;;;;5094390;28;19908;-74
2022/11/21 13:25:50;;;;;;;;;;;8.40;99.90;;;;;;5094099;28;20361;-74
2022/11/21 13:28:18;;;;;;;;;;;8.50;99.90;;;;;;5093633;28;19951;-74
2022/11/21 13:30:53;;;;;;;;;;;8.50;99.90;;;;;;5094110;28;20547;-74
2022/11/21 13:33:34;;;;;;;;;;;8.60;99.90;;;;;;5093995;28;20369;-74
2022/11/21 13:36:01;;;;;;;;;;;8.70;99.90;;;;;;5094608;28;19912;-74
2022/11/21 13:38:26;;;;;;;;;;;8.80;99.90;;;;;;5075755;28;19908;-74
2022/11/21 13:43:36;;;;;;;;;;;9.00;99.90;;;;;;5094345;28;19916;-74
2022/11/21 13:46:02;;;;;;;;;;;9.00;99.90;;;;;;5093741;28;19912;-74
2022/11/21 13:48:30;;;;;;;;;;;9.10;99.90;;;;;;5075735;28;20274;-74
2022/11/21 13:51:14;;;;;;;;;;;9.10;99.90;;;;;;5093981;28;19908;-74
2022/11/21 13:53:52;;;;;;;;;;;9.20;99.90;;;;;;5093994;28;19918;-74
2022/11/21 13:56:25;;;;;;;;;;;9.30;99.90;;;;;;5093644;28;19973;-74
2022/11/21 13:59:01;;;;;;;;;;;9.20;99.90;;;;;;5093952;28;19912;-74
2022/11/21 14:01:39;;;;;;;;;;;9.40;99.90;;;;;;5093361;28;19914;-74
2022/11/21 14:04:28;;;;;;;;;;;9.40;99.90;;;;;;5093557;28;19919;-74
2022/11/21 14:06:53;;;;;;;;;;;9.40;99.90;;;;;;5092671;28;19912;-74
2022/11/21 14:09:19;;;;;;;;;;;9.50;99.90;;;;;;5093284;28;19954;-74
2022/11/21 14:11:49;;;;;;;;;;;9.50;99.90;;;;;;5093779;28;19916;-74
2022/11/21 14:14:30;;;;;;;;;;;9.50;99.90;;;;;;5092914;28;19947;-75
2022/11/21 14:17:02;;;;;;;;;;;9.60;99.90;;;;;;5093435;28;19978;-74
2022/11/21 14:19:30;;;;;;;;;;;9.50;99.90;;;;;;5074869;28;19912;-74
2022/11/21 14:21:55;;;;;;;;;;;9.50;99.90;;;;;;5093610;28;19916;-74
2022/11/21 14:24:21;;;;;;;;;;;9.50;99.90;;;;;;5093129;28;19931;-74
2022/11/21 14:26:48;;;;;;;;;;;9.50;99.90;;;;;;5093205;28;19998;-74
2022/11/21 14:29:27;;;;;;;;;;;9.50;99.90;;;;;;5092802;28;20365;-74
2022/11/21 14:31:54;;;;;;;;;;;9.40;99.90;;;;;;5093315;28;19908;-74
2022/11/21 14:34:24;;;;;;;;;;;9.50;99.90;;;;;;5092664;28;20003;-74
2022/11/21 14:36:49;;;;;;;;;;;9.40;99.90;;;;;;5093263;28;19913;-74
2022/11/21 14:39:16;;;;;;;;;;;9.50;99.90;;;;;;5092691;28;19934;-74
2022/11/21 14:41:43;;;;;;;;;;;9.40;99.90;;;;;;5093523;28;19908;-74
2022/11/21 14:44:09;;;;;;;;;;;9.40;99.90;;;;;;5092752;28;19960;-74
2022/11/21 14:46:35;;;;;;;;;;;9.40;99.90;;;;;;5093235;28;20003;-75
2022/11/21 14:49:17;;;;;;;;;;;9.40;99.90;;;;;;5092643;28;20365;-74
2022/11/21 14:51:47;;;;;;;;;;;9.40;99.90;;;;;;5092576;28;20373;-74
2022/11/21 14:54:24;;;;;;;;;;;9.40;99.90;;;;;;5092228;28;19927;-74
2022/11/21 14:56:56;;;;;;;;;;;9.40;99.90;;;;;;5108637;28;20015;-74
2022/11/21 14:59:23;;;;;;;;;;;9.40;99.90;;;;;;5092062;28;19951;-74
2022/11/21 15:01:57;;;;;;;;;;;9.30;99.90;;;;;;5092923;28;20397;-74
2022/11/21 15:04:30;;;;;;;;;;;9.30;99.90;;;;;;5092062;28;19915;-74
2022/11/21 15:06:56;;;;;;;;;;;9.20;99.90;;;;;;5092634;28;19977;-74
2022/11/21 15:09:22;;;;;;;;;;;9.20;99.90;;;;;;5092082;28;20391;-74
2022/11/21 15:11:50;;;;;;;;;;;9.20;99.90;;;;;;5092487;28;19930;-74
2022/11/21 15:14:54;;;;;;;;;;;9.10;99.90;;;;;;5092229;28;19994;-74